createdAt,value
2018-07-23T00:01:04.075Z,14.18
2018-07-23T00:03:31.869Z,15.75
2018-07-23T00:05:59.678Z,11.05
2018-07-23T00:08:27.556Z,11.25
2018-07-23T00:10:55.425Z,11.80
2018-07-23T00:13:24.237Z,13.90
2018-07-23T00:15:52.044Z,10.53
2018-07-23T00:18:20.924Z,9.75
2018-07-23T00:20:48.746Z,10.53
2018-07-23T00:23:16.521Z,10.18
2018-07-23T00:25:44.301Z,9.83
2018-07-23T00:28:12.149Z,9.75
2018-07-23T00:30:39.944Z,9.15
2018-07-23T00:33:07.806Z,10.58
2018-07-23T00:35:35.586Z,14.68
2018-07-23T00:38:03.447Z,9.98
2018-07-23T00:40:31.259Z,10.53
2018-07-23T00:42:59.046Z,13.65
2018-07-23T00:45:26.920Z,11.53
2018-07-23T00:47:54.645Z,14.35
2018-07-23T00:50:29.518Z,11.88
2018-07-23T00:52:57.331Z,11.65
2018-07-23T00:55:25.164Z,11.97
2018-07-23T00:57:53.242Z,10.35
2018-07-23T01:00:21.174Z,10.90
2018-07-23T01:02:48.993Z,11.33
2018-07-23T01:05:17.818Z,10.53
2018-07-23T01:07:45.613Z,8.78
2018-07-23T01:10:13.436Z,12.68
2018-07-23T01:12:41.262Z,11.57
2018-07-23T01:15:09.154Z,8.53
2018-07-23T01:17:37.000Z,12.37
2018-07-23T01:20:04.898Z,8.20
2018-07-23T01:22:32.793Z,12.60
2018-07-23T01:25:00.604Z,9.48
2018-07-23T01:27:29.535Z,9.78
2018-07-23T01:29:57.315Z,12.70
2018-07-23T01:32:25.161Z,10.50
2018-07-23T01:34:53.015Z,9.10
2018-07-23T01:37:21.865Z,7.80
2018-07-23T01:39:49.731Z,9.53
2018-07-23T01:42:17.550Z,10.43
2018-07-23T01:44:45.319Z,8.93
2018-07-23T01:47:13.801Z,10.45
2018-07-23T01:49:41.672Z,7.90
2018-07-23T01:54:35.274Z,10.30
2018-07-23T01:57:03.130Z,8.75
2018-07-23T01:59:30.919Z,10.60
2018-07-23T02:01:58.861Z,10.00
2018-07-23T02:04:26.736Z,7.70
2018-07-23T02:06:54.555Z,8.33
2018-07-23T02:09:22.428Z,6.72
2018-07-23T02:11:50.251Z,8.43
2018-07-23T02:14:18.185Z,9.48
2018-07-23T02:16:46.066Z,7.22
2018-07-23T02:19:13.889Z,7.95
2018-07-23T02:21:41.714Z,8.55
2018-07-23T02:24:09.572Z,8.00
2018-07-23T02:26:37.386Z,9.55
2018-07-23T02:29:05.199Z,12.40
2018-07-23T02:31:33.132Z,8.88
2018-07-23T02:34:00.938Z,10.32
2018-07-23T02:36:28.741Z,9.55
2018-07-23T02:38:57.563Z,10.48
2018-07-23T02:41:25.450Z,10.30
2018-07-23T02:43:53.254Z,8.85
2018-07-23T02:46:21.089Z,11.03
2018-07-23T02:48:48.935Z,9.33
2018-07-23T02:51:16.747Z,9.15
2018-07-23T02:54:10.626Z,9.73
2018-07-23T02:56:38.522Z,17.42
2018-07-23T02:59:06.346Z,9.23
2018-07-23T03:01:34.173Z,13.62
2018-07-23T03:04:02.024Z,9.40
2018-07-23T03:06:29.805Z,10.53
2018-07-23T03:08:57.828Z,10.68
2018-07-23T03:11:26.003Z,10.08
2018-07-23T03:13:53.825Z,10.00
2018-07-23T03:16:21.678Z,13.78
2018-07-23T03:18:49.890Z,12.75
2018-07-23T03:21:17.683Z,10.38
2018-07-23T03:23:45.479Z,11.35
2018-07-23T03:26:13.313Z,10.50
2018-07-23T03:28:41.135Z,10.90
2018-07-23T03:31:08.943Z,10.45
2018-07-23T03:33:36.726Z,11.43
2018-07-23T03:36:04.593Z,17.77
2018-07-23T03:38:32.389Z,12.68
2018-07-23T03:41:00.194Z,13.98
2018-07-23T03:43:27.985Z,15.95
2018-07-23T03:45:55.755Z,15.23
2018-07-23T03:48:23.583Z,41.65
2018-07-23T03:50:51.354Z,23.67
2018-07-23T03:53:19.116Z,22.15
2018-07-23T03:55:46.865Z,14.28
2018-07-23T03:58:14.645Z,15.83
2018-07-23T04:00:42.398Z,13.00
2018-07-23T04:03:10.115Z,15.40
2018-07-23T04:05:37.896Z,12.80
2018-07-23T04:08:05.688Z,15.83
2018-07-23T04:10:34.539Z,15.50
2018-07-23T04:13:02.372Z,14.78
2018-07-23T04:15:55.186Z,17.67
2018-07-23T04:18:23.089Z,15.30
2018-07-23T04:20:50.921Z,14.70
2018-07-23T04:23:18.716Z,14.65
2018-07-23T04:25:46.524Z,14.80
2018-07-23T04:28:14.266Z,14.03
2018-07-23T04:30:42.110Z,14.47
2018-07-23T04:33:09.884Z,14.85
2018-07-23T04:35:38.661Z,18.57
2018-07-23T04:38:06.429Z,14.95
2018-07-23T04:40:34.216Z,13.03
2018-07-23T04:43:01.998Z,13.98
2018-07-23T04:45:33.309Z,13.78
2018-07-23T04:48:01.064Z,13.25
2018-07-23T04:50:29.419Z,15.40
2018-07-23T04:56:13.736Z,15.15
2018-07-23T04:58:41.658Z,17.20
2018-07-23T05:01:09.647Z,18.15
2018-07-23T05:03:37.716Z,13.68
2018-07-23T05:06:18.378Z,15.63
2018-07-23T05:08:46.288Z,13.65
2018-07-23T05:11:15.463Z,16.12
2018-07-23T05:13:43.421Z,13.03
2018-07-23T05:16:17.368Z,15.23
2018-07-23T05:18:45.317Z,17.70
2018-07-23T05:21:20.382Z,16.70
2018-07-23T05:23:48.271Z,19.77
2018-07-23T05:26:17.345Z,14.15
2018-07-23T05:28:45.202Z,13.18
2018-07-23T05:31:14.295Z,12.03
2018-07-23T05:33:42.263Z,18.15
2018-07-23T05:36:12.233Z,16.82
2018-07-23T05:38:40.270Z,14.70
2018-07-23T05:41:08.230Z,13.72
2018-07-23T05:43:36.206Z,13.32
2018-07-23T05:46:05.274Z,15.32
2018-07-23T05:48:33.211Z,12.85
2018-07-23T05:51:01.174Z,14.78
2018-07-23T05:53:29.057Z,13.65
2018-07-23T05:55:56.916Z,14.38
2018-07-23T05:58:24.821Z,16.67
2018-07-23T06:00:52.605Z,13.43
2018-07-23T06:03:21.544Z,15.08
2018-07-23T06:05:49.353Z,16.35
2018-07-23T06:08:17.350Z,17.65
2018-07-23T06:10:45.113Z,14.63
2018-07-23T06:13:14.088Z,14.55
2018-07-23T06:15:41.800Z,12.65
2018-07-23T06:18:09.787Z,13.38
2018-07-23T06:20:37.624Z,16.25
2018-07-23T06:23:05.556Z,13.72
2018-07-23T06:25:33.495Z,11.88
2018-07-23T06:28:01.372Z,15.83
2018-07-23T06:30:30.227Z,15.00
2018-07-23T06:32:58.027Z,15.28
2018-07-23T06:35:25.890Z,11.33
2018-07-23T06:37:53.711Z,14.38
2018-07-23T06:40:23.640Z,13.20
2018-07-23T06:42:51.626Z,16.17
2018-07-23T06:45:20.560Z,11.57
2018-07-23T06:47:48.419Z,14.63
2018-07-23T06:50:17.871Z,11.25
2018-07-23T06:52:45.765Z,12.23
2018-07-23T06:55:13.582Z,10.60
2018-07-23T06:57:47.952Z,13.75
2018-07-23T07:00:15.927Z,12.98
2018-07-23T07:02:43.881Z,11.65
2018-07-23T07:05:11.828Z,10.55
2018-07-23T07:07:39.893Z,10.82
2018-07-23T07:10:07.926Z,15.68
2018-07-23T07:12:52.767Z,12.40
2018-07-23T07:15:28.869Z,12.47
2018-07-23T07:17:56.656Z,10.53
2018-07-23T07:23:59.221Z,11.63
2018-07-23T07:26:27.040Z,13.10
2018-07-23T07:29:25.274Z,10.72
2018-07-23T07:31:53.066Z,10.85
2018-07-23T07:34:25.769Z,11.97
2018-07-23T07:36:53.612Z,12.18
2018-07-23T07:39:21.635Z,13.98
2018-07-23T07:41:49.460Z,10.55
2018-07-23T07:44:17.267Z,10.72
2018-07-23T07:46:46.277Z,11.35
2018-07-23T07:49:14.079Z,13.28
2018-07-23T07:51:42.026Z,10.23
2018-07-23T07:54:09.867Z,10.55
2018-07-23T07:56:37.993Z,10.15
2018-07-23T07:59:05.823Z,10.45
2018-07-23T08:01:33.916Z,13.03
2018-07-23T08:04:01.830Z,10.85
2018-07-23T08:06:31.891Z,10.55
2018-07-23T08:08:59.692Z,10.50
2018-07-23T08:15:02.309Z,9.50
2018-07-23T08:17:30.334Z,9.78
2018-07-23T08:20:01.227Z,10.15
2018-07-23T08:22:30.163Z,10.23
2018-07-23T08:25:24.852Z,10.63
2018-07-23T08:27:52.759Z,10.45
2018-07-23T08:30:20.641Z,9.85
2018-07-23T08:32:48.511Z,10.75
2018-07-23T08:35:16.572Z,9.10
2018-07-23T08:37:44.558Z,10.20
2018-07-23T08:40:12.504Z,9.95
2018-07-23T08:42:40.415Z,9.08
2018-07-23T08:45:08.327Z,7.65
2018-07-23T08:47:37.111Z,9.20
2018-07-23T08:50:05.289Z,7.62
2018-07-23T08:52:33.219Z,10.60
2018-07-23T08:55:01.133Z,8.63
2018-07-23T08:57:29.178Z,7.53
2018-07-23T08:59:57.004Z,9.18
2018-07-23T09:02:24.949Z,9.13
2018-07-23T09:04:52.767Z,9.05
2018-07-23T09:07:20.643Z,9.03
2018-07-23T09:09:48.623Z,6.12
2018-07-23T09:12:16.502Z,6.15
2018-07-23T09:14:44.420Z,7.87
2018-07-23T09:17:12.327Z,8.15
2018-07-23T09:19:40.220Z,11.63
2018-07-23T09:22:08.158Z,12.70
2018-07-23T09:24:36.156Z,9.55
2018-07-23T09:27:04.071Z,9.80
2018-07-23T09:29:36.451Z,7.90
2018-07-23T09:32:04.343Z,6.78
2018-07-23T09:34:32.204Z,4.62
2018-07-23T09:37:00.004Z,5.78
2018-07-23T09:39:27.826Z,6.55
2018-07-23T09:41:55.643Z,8.63
2018-07-23T09:44:23.509Z,6.17
2018-07-23T09:46:51.303Z,7.90
2018-07-23T09:49:19.050Z,8.90
2018-07-23T09:51:46.814Z,5.55
2018-07-23T09:54:15.598Z,4.47
2018-07-23T09:56:43.373Z,8.90
2018-07-23T09:59:11.404Z,5.33
2018-07-23T10:01:39.423Z,4.85
2018-07-23T10:04:07.225Z,9.33
2018-07-23T10:06:35.034Z,5.72
2018-07-23T10:09:02.963Z,6.55
2018-07-23T10:11:30.795Z,6.03
2018-07-23T10:13:58.600Z,4.90
2018-07-23T10:16:26.394Z,5.70
2018-07-23T10:18:54.155Z,4.83
2018-07-23T10:21:22.013Z,4.35
2018-07-23T10:23:49.775Z,3.75
2018-07-23T10:26:17.578Z,6.17
2018-07-23T10:28:45.348Z,26.87
2018-07-23T10:31:13.131Z,8.50
2018-07-23T10:33:40.877Z,4.42
2018-07-23T10:36:08.680Z,5.28
2018-07-23T10:38:36.503Z,3.50
2018-07-23T10:41:04.315Z,3.87
2018-07-23T10:43:32.131Z,4.03
2018-07-23T10:45:59.925Z,2.58
2018-07-23T10:48:36.006Z,2.15
2018-07-23T10:51:12.720Z,3.58
2018-07-23T10:53:40.603Z,3.00
2018-07-23T10:56:08.497Z,2.50
2018-07-23T10:58:36.415Z,1.85
2018-07-23T11:01:04.332Z,3.15
2018-07-23T11:03:32.207Z,2.67
2018-07-23T11:06:00.079Z,2.47
2018-07-23T11:08:27.963Z,2.85
2018-07-23T11:10:55.824Z,3.25
2018-07-23T11:13:23.680Z,2.90
2018-07-23T11:15:51.556Z,3.17
2018-07-23T11:18:19.501Z,3.15
2018-07-23T11:20:47.389Z,6.47
2018-07-23T11:23:15.298Z,3.50
2018-07-23T11:25:43.242Z,3.12
2018-07-23T11:28:11.195Z,4.30
2018-07-23T11:30:39.067Z,5.40
2018-07-23T11:33:06.974Z,3.85
2018-07-23T11:35:34.952Z,2.37
2018-07-23T11:38:02.873Z,3.77
2018-07-23T11:40:30.785Z,3.10
2018-07-23T11:42:58.752Z,3.30
2018-07-23T11:45:26.748Z,2.83
2018-07-23T11:47:54.654Z,2.72
2018-07-23T11:50:24.021Z,2.75
2018-07-23T11:52:51.909Z,2.65
2018-07-23T11:55:19.751Z,3.22
2018-07-23T11:57:47.584Z,3.75
2018-07-23T12:00:16.886Z,4.75
2018-07-23T12:02:45.101Z,4.65
2018-07-23T12:05:12.956Z,3.83
2018-07-23T12:07:40.810Z,5.37
2018-07-23T12:10:09.671Z,5.12
2018-07-23T12:12:37.549Z,5.90
2018-07-23T12:15:05.419Z,3.12
2018-07-23T12:17:33.365Z,5.45
2018-07-23T12:20:01.187Z,4.95
2018-07-23T12:22:28.937Z,2.02
2018-07-23T12:24:56.793Z,4.35
2018-07-23T12:27:39.228Z,2.50
2018-07-23T12:30:07.172Z,4.47
2018-07-23T12:32:34.989Z,2.77
2018-07-23T12:35:02.901Z,2.80
2018-07-23T12:37:30.818Z,5.10
2018-07-23T12:39:58.686Z,3.20
2018-07-23T12:42:26.544Z,4.53
2018-07-23T12:44:54.442Z,3.75
2018-07-23T12:47:22.376Z,5.87
2018-07-23T12:49:50.275Z,3.87
2018-07-23T12:52:18.230Z,5.28
2018-07-23T12:54:46.160Z,4.08
2018-07-23T12:57:13.975Z,4.65
2018-07-23T12:59:41.841Z,3.83
2018-07-23T13:02:09.757Z,6.22
2018-07-23T13:04:37.593Z,3.20
2018-07-23T13:07:05.415Z,3.37
2018-07-23T13:09:33.209Z,4.78
2018-07-23T13:12:01.093Z,4.42
2018-07-23T13:14:28.952Z,2.10
2018-07-23T13:16:56.826Z,3.05
2018-07-23T13:19:24.786Z,9.40
2018-07-23T13:21:52.914Z,2.65
2018-07-23T13:24:20.760Z,4.58
2018-07-23T13:26:48.568Z,3.80
2018-07-23T13:29:16.474Z,4.53
2018-07-23T13:31:44.379Z,2.42
2018-07-23T13:34:12.212Z,2.80
2018-07-23T13:36:40.045Z,2.42
2018-07-23T13:39:09.753Z,3.85
2018-07-23T13:41:37.557Z,3.22
2018-07-23T13:44:06.421Z,4.15
2018-07-23T13:46:34.331Z,3.47
2018-07-23T13:49:02.194Z,1.85
2018-07-23T13:51:30.047Z,2.58
2018-07-23T13:53:57.968Z,1.80
2018-07-23T13:56:25.805Z,3.40
2018-07-23T13:58:53.676Z,2.17
2018-07-23T14:01:21.549Z,5.30
2018-07-23T14:03:49.496Z,1.95
2018-07-23T14:06:17.309Z,1.95
2018-07-23T14:08:45.235Z,2.72
2018-07-23T14:11:13.137Z,2.55
2018-07-23T14:13:41.030Z,2.00
2018-07-23T14:16:09.006Z,7.10
2018-07-23T14:18:37.839Z,2.15
2018-07-23T14:21:05.817Z,2.55
2018-07-23T14:23:33.656Z,1.52
2018-07-23T14:26:01.677Z,1.92
2018-07-23T14:28:30.515Z,3.50
2018-07-23T14:30:58.408Z,1.98
2018-07-23T14:33:26.538Z,2.00
2018-07-23T14:35:54.684Z,2.55
2018-07-23T14:38:22.504Z,3.17
2018-07-23T14:40:50.369Z,1.42
2018-07-23T14:43:18.309Z,1.42
2018-07-23T14:45:46.177Z,2.45
2018-07-23T14:48:14.036Z,3.27
2018-07-23T14:50:43.050Z,4.67
2018-07-23T14:53:10.866Z,6.05
2018-07-23T14:55:38.774Z,3.62
2018-07-23T14:58:06.633Z,2.55
2018-07-23T15:00:34.632Z,1.90
2018-07-23T15:03:02.571Z,1.98
2018-07-23T15:05:31.468Z,2.27
2018-07-23T15:08:00.605Z,2.27
2018-07-23T15:10:28.456Z,2.75
2018-07-23T15:12:56.370Z,2.58
2018-07-23T15:15:45.383Z,2.30
2018-07-23T15:18:13.543Z,4.42
2018-07-23T15:20:41.438Z,9.13
2018-07-23T15:23:57.203Z,2.47
2018-07-23T15:26:25.129Z,1.57
2018-07-23T15:29:14.943Z,4.65
2018-07-23T15:31:42.896Z,1.77
2018-07-23T15:37:33.699Z,2.45
2018-07-23T15:40:45.719Z,2.00
2018-07-23T15:43:13.629Z,5.45
2018-07-23T15:45:42.718Z,2.60
2018-07-23T15:48:10.509Z,3.40
2018-07-23T15:50:43.911Z,4.28
2018-07-23T15:53:11.862Z,1.92
2018-07-23T15:55:44.393Z,2.35
2018-07-23T15:58:12.348Z,2.80
2018-07-23T16:01:07.327Z,3.05
2018-07-23T16:03:35.211Z,3.52
2018-07-23T16:06:09.031Z,3.37
2018-07-23T16:08:36.958Z,2.08
2018-07-23T16:11:27.773Z,2.72
2018-07-23T16:13:55.716Z,4.60
2018-07-23T16:17:00.048Z,2.98
2018-07-23T16:19:42.219Z,3.22
2018-07-23T16:22:10.212Z,3.08
2018-07-23T16:24:38.055Z,2.35
2018-07-23T16:27:05.957Z,2.50
2018-07-23T16:29:33.754Z,3.33
2018-07-23T16:32:01.682Z,3.42
2018-07-23T16:34:29.583Z,2.70
2018-07-23T16:36:59.488Z,2.62
2018-07-23T16:39:27.339Z,2.22
2018-07-23T16:41:55.294Z,4.28
2018-07-23T16:44:24.178Z,2.83
2018-07-23T16:46:52.068Z,5.87
2018-07-23T16:49:19.918Z,2.15
2018-07-23T16:51:47.872Z,3.55
2018-07-23T16:54:15.840Z,2.67
2018-07-23T16:56:43.833Z,3.42
2018-07-23T16:59:11.709Z,4.20
2018-07-23T17:01:39.596Z,4.35
2018-07-23T17:04:07.456Z,3.58
2018-07-23T17:06:35.398Z,3.22
2018-07-23T17:09:05.042Z,2.25
2018-07-23T17:11:32.968Z,3.20
2018-07-23T17:14:00.878Z,3.72
2018-07-23T17:16:28.756Z,2.65
2018-07-23T17:18:56.577Z,3.72
2018-07-23T17:21:24.403Z,3.72
2018-07-23T17:23:52.366Z,4.10
2018-07-23T17:26:20.237Z,8.35
2018-07-23T17:28:48.224Z,9.28
2018-07-23T17:31:17.132Z,11.38
2018-07-23T17:33:45.034Z,5.50
2018-07-23T17:36:12.988Z,2.77
2018-07-23T17:38:40.884Z,14.63
2018-07-23T17:41:13.242Z,6.80
2018-07-23T17:43:41.147Z,5.03
2018-07-23T17:46:17.751Z,4.60
2018-07-23T17:48:45.684Z,3.52
2018-07-23T17:51:41.896Z,3.22
2018-07-23T17:54:09.695Z,2.80
2018-07-23T17:57:08.291Z,2.30
2018-07-23T17:59:36.238Z,7.05
2018-07-23T18:02:04.275Z,3.92
2018-07-23T18:04:32.280Z,4.25
2018-07-23T18:07:11.487Z,3.22
2018-07-23T18:09:39.378Z,3.00
2018-07-23T18:12:34.486Z,5.58
2018-07-23T18:15:02.417Z,5.58
2018-07-23T18:17:33.658Z,3.22
2018-07-23T18:20:01.563Z,4.75
2018-07-23T18:22:34.767Z,4.72
2018-07-23T18:25:02.769Z,2.52
2018-07-23T18:27:31.628Z,4.17
2018-07-23T18:29:59.537Z,2.55
2018-07-23T18:32:27.474Z,2.62
2018-07-23T18:34:55.334Z,5.30
2018-07-23T18:37:23.216Z,8.03
2018-07-23T18:39:51.111Z,5.00
2018-07-23T18:42:18.995Z,4.08
2018-07-23T18:44:46.915Z,6.17
2018-07-23T18:47:14.874Z,2.70
2018-07-23T18:49:50.778Z,5.92
2018-07-23T18:52:19.391Z,3.92
2018-07-23T18:54:49.369Z,4.15
2018-07-23T18:57:17.313Z,3.20
2018-07-23T18:59:45.281Z,2.72
2018-07-23T19:02:14.397Z,2.80
2018-07-23T19:04:42.374Z,2.52
2018-07-23T19:07:10.303Z,4.17
2018-07-23T19:09:38.186Z,4.30
2018-07-23T19:12:06.512Z,4.47
2018-07-23T19:14:34.412Z,3.77
2018-07-23T19:17:03.157Z,4.45
2018-07-23T19:19:31.065Z,6.30
2018-07-23T19:21:59.030Z,5.10
2018-07-23T19:24:26.977Z,5.50
2018-07-23T19:26:54.866Z,3.20
2018-07-23T19:29:22.814Z,2.90
2018-07-23T19:31:50.894Z,2.60
2018-07-23T19:34:18.833Z,4.00
2018-07-23T19:36:46.738Z,7.65
2018-07-23T19:39:15.811Z,4.45
2018-07-23T19:41:43.730Z,4.75
2018-07-23T19:44:11.855Z,6.28
2018-07-23T19:46:39.968Z,3.75
2018-07-23T19:49:07.867Z,5.45
2018-07-23T19:51:35.883Z,8.40
2018-07-23T19:54:03.917Z,3.55
2018-07-23T19:59:31.291Z,7.50
2018-07-23T20:01:59.104Z,6.62
2018-07-23T20:04:26.959Z,7.70
2018-07-23T20:06:54.836Z,9.23
2018-07-23T20:09:22.656Z,4.92
2018-07-23T20:11:51.518Z,7.37
2018-07-23T20:14:19.401Z,11.30
2018-07-23T20:16:48.244Z,6.15
2018-07-23T20:19:16.046Z,10.32
2018-07-23T20:21:46.324Z,7.30
2018-07-23T20:24:14.182Z,9.25
2018-07-23T20:26:42.033Z,11.25
2018-07-23T20:29:14.413Z,7.97
2018-07-23T20:31:42.227Z,7.78
2018-07-23T20:34:10.089Z,5.20
2018-07-23T20:36:38.160Z,6.08
2018-07-23T20:39:07.833Z,7.20
2018-07-23T20:41:35.859Z,5.83
2018-07-23T20:44:05.415Z,6.40
2018-07-23T20:46:33.306Z,6.85
2018-07-23T20:49:01.147Z,6.95
2018-07-23T20:52:12.445Z,10.20
2018-07-23T20:57:06.254Z,8.28
2018-07-23T20:59:34.213Z,10.30
2018-07-23T21:02:02.223Z,8.63
2018-07-23T21:04:30.216Z,6.20
2018-07-23T21:06:58.085Z,6.53
2018-07-23T21:09:25.883Z,11.53
2018-07-23T21:11:53.817Z,9.43
2018-07-23T21:14:22.743Z,7.45
2018-07-23T21:16:50.603Z,6.33
2018-07-23T21:19:18.599Z,6.87
2018-07-23T21:21:53.585Z,6.58
2018-07-23T21:24:21.561Z,9.05
2018-07-23T21:26:49.445Z,10.18
2018-07-23T21:29:17.322Z,6.05
2018-07-23T21:31:45.210Z,7.92
2018-07-23T21:34:13.009Z,8.88
2018-07-23T21:36:40.905Z,8.33
2018-07-23T21:39:09.619Z,11.63
2018-07-23T21:41:37.520Z,11.43
2018-07-23T21:44:05.358Z,8.18
2018-07-23T21:46:33.234Z,8.73
2018-07-23T21:49:01.117Z,7.60
2018-07-23T21:51:29.115Z,7.80
2018-07-23T21:53:56.994Z,8.65
2018-07-23T21:56:46.074Z,9.73
2018-07-23T21:59:26.782Z,8.20
2018-07-23T22:01:54.809Z,8.40
2018-07-23T22:04:22.814Z,11.88
2018-07-23T22:06:50.829Z,8.60
2018-07-23T22:09:18.716Z,9.05
2018-07-23T22:11:46.632Z,12.47
2018-07-23T22:14:14.711Z,10.50
2018-07-23T22:16:42.653Z,9.65
2018-07-23T22:19:10.759Z,8.35
2018-07-23T22:21:38.789Z,6.67
2018-07-23T22:24:06.708Z,8.45
2018-07-23T22:26:34.698Z,9.18
2018-07-23T22:29:02.785Z,5.70
2018-07-23T22:31:30.743Z,8.00
2018-07-23T22:33:58.728Z,7.15
2018-07-23T22:36:26.691Z,8.33
2018-07-23T22:38:54.677Z,9.18
2018-07-23T22:41:22.523Z,10.48
2018-07-23T22:43:50.458Z,10.40
2018-07-23T22:46:18.372Z,6.50
2018-07-23T22:48:46.299Z,9.20
2018-07-23T22:51:14.195Z,9.63
2018-07-23T22:53:42.132Z,6.97
2018-07-23T22:56:10.042Z,10.13
2018-07-23T22:58:38.076Z,9.48
2018-07-23T23:01:06.007Z,13.45
2018-07-23T23:03:33.907Z,8.00
2018-07-23T23:06:01.768Z,8.25
2018-07-23T23:08:29.708Z,12.20
2018-07-23T23:10:57.571Z,8.43
2018-07-23T23:13:25.487Z,8.63
2018-07-23T23:15:53.360Z,8.10
2018-07-23T23:18:21.186Z,9.05
2018-07-23T23:20:49.171Z,10.38
2018-07-23T23:23:17.002Z,9.33
2018-07-23T23:25:44.853Z,10.90
2018-07-23T23:28:12.717Z,10.18
2018-07-23T23:30:40.531Z,7.95
2018-07-23T23:33:08.378Z,11.78
2018-07-23T23:35:36.224Z,8.65
2018-07-23T23:38:04.088Z,7.33
2018-07-23T23:40:31.904Z,10.93
2018-07-23T23:42:59.736Z,12.85
2018-07-23T23:45:27.570Z,8.25
2018-07-23T23:47:55.394Z,11.30
2018-07-23T23:50:23.255Z,9.83
2018-07-23T23:52:51.100Z,8.28
2018-07-23T23:55:18.962Z,12.13
2018-07-23T23:58:27.968Z,12.75
